createdAt,value
2023-01-12T00:01:45.662Z,7.73
2023-01-12T00:04:14.504Z,7.68
2023-01-12T00:06:42.678Z,7.60
2023-01-12T00:09:11.192Z,7.80
2023-01-12T00:11:40.077Z,7.84
2023-01-12T00:14:09.455Z,7.86
2023-01-12T00:16:41.439Z,7.89
2023-01-12T00:19:13.055Z,7.87
2023-01-12T00:21:52.461Z,7.81
2023-01-12T00:24:20.749Z,7.79
2023-01-12T00:26:49.484Z,7.74
2023-01-12T00:29:17.602Z,7.67
2023-01-12T00:31:45.795Z,7.62
2023-01-12T00:34:16.118Z,7.73
2023-01-12T00:36:44.165Z,7.74
2023-01-12T00:39:11.890Z,7.73
2023-01-12T00:41:57.615Z,7.74
2023-01-12T00:44:43.109Z,7.68
2023-01-12T00:47:11.876Z,7.72
2023-01-12T00:49:42.066Z,7.67
2023-01-12T00:52:18.272Z,7.66
2023-01-12T00:54:53.025Z,7.58
2023-01-12T00:57:20.654Z,7.63
2023-01-12T00:59:48.311Z,7.46
2023-01-12T01:02:16.071Z,7.63
2023-01-12T01:04:45.138Z,7.62
2023-01-12T01:07:16.007Z,7.48
2023-01-12T01:09:44.406Z,7.64
2023-01-12T01:12:12.133Z,7.56
2023-01-12T01:14:39.860Z,7.62
2023-01-12T01:17:07.612Z,7.81
2023-01-12T01:19:35.308Z,7.86
2023-01-12T01:22:04.690Z,7.81
2023-01-12T01:24:32.642Z,7.67
2023-01-12T01:27:00.299Z,7.88
2023-01-12T01:29:27.996Z,7.86
2023-01-12T01:31:56.298Z,7.88
2023-01-12T01:34:24.664Z,7.96
2023-01-12T01:36:52.354Z,7.93
2023-01-12T01:39:21.349Z,7.92
2023-01-12T01:41:49.072Z,7.96
2023-01-12T01:44:53.707Z,7.94
2023-01-12T01:47:33.453Z,7.98
2023-01-12T01:50:04.008Z,8.07
2023-01-12T01:52:35.637Z,8.11
2023-01-12T01:55:09.494Z,8.05
2023-01-12T01:57:44.001Z,8.09
2023-01-12T02:00:13.768Z,8.11
2023-01-12T02:02:43.652Z,8.06
2023-01-12T02:05:12.708Z,8.32
2023-01-12T02:07:41.925Z,8.20
2023-01-12T02:10:12.248Z,8.33
2023-01-12T02:12:58.333Z,8.30
2023-01-12T02:15:48.048Z,8.27
2023-01-12T02:18:22.635Z,8.21
2023-01-12T02:21:03.716Z,8.26
2023-01-12T02:24:00.662Z,8.40
2023-01-12T02:26:54.354Z,8.38
2023-01-12T02:29:46.590Z,8.47
2023-01-12T02:32:26.148Z,8.42
2023-01-12T02:35:05.551Z,8.40
2023-01-12T02:37:43.050Z,8.36
2023-01-12T02:40:16.666Z,8.34
2023-01-12T02:42:54.485Z,8.19
2023-01-12T02:45:34.889Z,8.39
2023-01-12T02:48:10.323Z,8.20
2023-01-12T02:50:44.824Z,8.35
2023-01-12T02:53:18.086Z,8.33
2023-01-12T02:55:47.537Z,8.42
2023-01-12T02:58:18.773Z,8.43
2023-01-12T03:00:50.361Z,8.39
2023-01-12T03:03:20.260Z,8.47
2023-01-12T03:05:48.469Z,8.43
2023-01-12T03:08:18.905Z,8.48
2023-01-12T03:11:01.512Z,8.40
2023-01-12T03:13:32.740Z,8.51
2023-01-12T03:16:02.056Z,8.48
2023-01-12T03:18:34.021Z,8.46
2023-01-12T03:21:06.122Z,8.29
2023-01-12T03:23:42.379Z,8.44
2023-01-12T03:26:12.491Z,8.57
2023-01-12T03:28:44.117Z,8.55
2023-01-12T03:31:13.998Z,8.58
2023-01-12T03:33:44.563Z,8.46
2023-01-12T03:36:20.533Z,8.45
2023-01-12T03:39:01.063Z,8.56
2023-01-12T03:41:38.972Z,8.50
2023-01-12T03:44:15.192Z,8.44
2023-01-12T03:46:48.009Z,8.59
2023-01-12T03:49:24.316Z,8.46
2023-01-12T03:51:54.208Z,8.62
2023-01-12T03:54:23.163Z,8.63
2023-01-12T03:56:51.760Z,8.66
2023-01-12T03:59:19.609Z,8.45
2023-01-12T04:01:48.901Z,8.57
2023-01-12T04:04:18.237Z,8.52
2023-01-12T04:06:45.857Z,8.49
2023-01-12T04:09:13.446Z,8.53
2023-01-12T04:11:58.541Z,8.47
2023-01-12T04:14:26.549Z,8.35
2023-01-12T04:16:54.227Z,8.54
2023-01-12T04:19:23.205Z,8.55
2023-01-12T04:22:08.788Z,8.46
2023-01-12T04:24:36.391Z,8.61
2023-01-12T04:27:04.258Z,8.51
2023-01-12T04:29:31.885Z,8.39
2023-01-12T04:31:59.593Z,8.41
2023-01-12T04:34:28.630Z,8.47
2023-01-12T04:36:56.254Z,8.50
2023-01-12T04:39:24.223Z,8.61
2023-01-12T04:41:52.401Z,8.52
2023-01-12T04:44:20.338Z,8.48
2023-01-12T04:46:50.581Z,8.50
2023-01-12T04:49:18.629Z,8.51
2023-01-12T04:51:47.688Z,8.61
2023-01-12T04:54:15.332Z,8.55
2023-01-12T04:56:43.036Z,8.61
2023-01-12T04:59:10.763Z,8.60
2023-01-12T05:01:39.103Z,8.57
2023-01-12T05:04:08.055Z,8.55
2023-01-12T05:06:35.939Z,8.55
2023-01-12T05:09:22.446Z,8.54
2023-01-12T05:11:50.096Z,8.51
2023-01-12T05:14:17.717Z,8.63
2023-01-12T05:16:45.614Z,8.63
2023-01-12T05:19:13.359Z,8.57
2023-01-12T05:21:41.082Z,8.58
2023-01-12T05:24:10.408Z,8.52
2023-01-12T05:26:38.236Z,8.46
2023-01-12T05:29:05.865Z,8.46
2023-01-12T05:31:35.509Z,8.51
2023-01-12T05:34:03.179Z,8.43
2023-01-12T05:36:31.096Z,8.46
2023-01-12T05:38:59.617Z,8.49
2023-01-12T05:41:28.657Z,8.44
2023-01-12T05:43:55.361Z,8.51
2023-01-12T05:46:25.315Z,8.49
2023-01-12T05:48:54.463Z,8.45
2023-01-12T05:51:22.598Z,8.43
2023-01-12T05:53:51.346Z,8.61
2023-01-12T05:56:21.093Z,8.66
2023-01-12T05:58:54.657Z,8.58
2023-01-12T06:01:23.183Z,8.60
2023-01-12T06:03:51.911Z,8.39
2023-01-12T06:06:20.697Z,8.60
2023-01-12T06:08:50.694Z,8.54
2023-01-12T06:11:36.784Z,8.65
2023-01-12T06:14:06.305Z,8.63
2023-01-12T06:16:34.171Z,8.66
2023-01-12T06:19:02.174Z,8.60
2023-01-12T06:21:29.987Z,8.65
2023-01-12T06:23:57.670Z,8.72
2023-01-12T06:26:25.370Z,8.63
2023-01-12T06:28:53.094Z,8.66
2023-01-12T06:31:22.194Z,8.62
2023-01-12T06:33:49.945Z,8.57
2023-01-12T06:36:17.620Z,8.61
2023-01-12T06:38:45.298Z,8.62
2023-01-12T06:41:34.316Z,8.65
2023-01-12T06:44:01.980Z,8.41
2023-01-12T06:46:31.562Z,8.60
2023-01-12T06:48:59.785Z,8.53
2023-01-12T06:51:27.592Z,8.59
2023-01-12T06:53:55.595Z,8.66
2023-01-12T06:56:23.387Z,8.63
2023-01-12T06:58:51.130Z,8.56
2023-01-12T07:01:18.969Z,8.57
2023-01-12T07:03:48.077Z,8.63
2023-01-12T07:06:16.565Z,8.56
2023-01-12T07:08:44.233Z,8.60
2023-01-12T07:11:12.718Z,8.61
2023-01-12T07:13:40.382Z,8.56
2023-01-12T07:16:08.760Z,8.55
2023-01-12T07:18:36.680Z,8.54
2023-01-12T07:21:10.424Z,8.52
2023-01-12T07:23:38.520Z,8.52
2023-01-12T07:26:06.396Z,8.46
2023-01-12T07:28:35.534Z,8.54
2023-01-12T07:31:04.573Z,8.73
2023-01-12T07:33:34.273Z,8.61
2023-01-12T07:36:02.882Z,8.55
2023-01-12T07:38:32.394Z,8.58
2023-01-12T07:41:00.375Z,8.60
2023-01-12T07:43:28.647Z,8.65
2023-01-12T07:45:57.852Z,8.65
2023-01-12T07:48:26.743Z,8.60
2023-01-12T07:50:54.720Z,8.47
2023-01-12T07:53:22.395Z,8.54
2023-01-12T07:55:51.436Z,8.42
2023-01-12T07:58:19.157Z,8.62
2023-01-12T08:00:46.908Z,8.55
2023-01-12T08:03:15.250Z,8.66
2023-01-12T08:05:43.101Z,8.68
2023-01-12T08:08:10.804Z,8.46
2023-01-12T08:10:38.552Z,8.69
2023-01-12T08:13:07.644Z,8.65
2023-01-12T08:15:41.238Z,8.60
2023-01-12T08:18:15.088Z,8.56
2023-01-12T08:20:43.567Z,8.48
2023-01-12T08:23:14.381Z,8.47
2023-01-12T08:25:46.149Z,8.54
2023-01-12T08:28:19.981Z,8.57
2023-01-12T08:30:49.668Z,8.48
2023-01-12T08:33:17.753Z,8.48
2023-01-12T08:35:47.200Z,8.46
2023-01-12T08:38:15.101Z,8.57
2023-01-12T08:41:00.291Z,8.45
2023-01-12T08:43:46.768Z,8.54
2023-01-12T08:46:14.601Z,8.59
2023-01-12T08:48:42.371Z,8.66
2023-01-12T08:51:10.381Z,8.01
2023-01-12T08:53:38.009Z,8.64
2023-01-12T08:56:06.379Z,8.58
2023-01-12T08:58:35.499Z,8.59
2023-01-12T09:01:10.659Z,8.55
2023-01-12T09:03:39.211Z,8.65
2023-01-12T09:06:11.378Z,8.54
2023-01-12T09:08:39.015Z,8.46
2023-01-12T09:11:07.405Z,8.55
2023-01-12T09:13:37.020Z,8.54
2023-01-12T09:16:12.752Z,8.64
2023-01-12T09:18:41.671Z,8.71
2023-01-12T09:21:11.360Z,8.64
2023-01-12T09:23:39.860Z,8.72
2023-01-12T09:26:08.916Z,8.77
2023-01-12T09:28:38.578Z,8.65
2023-01-12T09:31:08.740Z,8.74
2023-01-12T09:33:38.411Z,8.84
2023-01-12T09:36:08.297Z,8.82
2023-01-12T09:38:37.157Z,8.86
2023-01-12T09:41:13.118Z,8.99
2023-01-12T09:44:05.321Z,8.92
2023-01-12T09:46:56.865Z,8.90
2023-01-12T09:49:29.693Z,9.01
2023-01-12T09:52:01.544Z,8.96
2023-01-12T09:54:29.331Z,9.08
2023-01-12T09:57:09.290Z,9.08
2023-01-12T09:59:49.661Z,9.21
2023-01-12T10:02:17.535Z,9.25
2023-01-12T10:04:46.954Z,9.28
2023-01-12T10:07:17.140Z,9.14
2023-01-12T10:09:45.443Z,9.24
2023-01-12T10:12:21.425Z,9.33
2023-01-12T10:15:24.810Z,9.20
2023-01-12T10:17:57.365Z,9.21
2023-01-12T10:20:31.231Z,9.26
2023-01-12T10:23:09.676Z,9.05
2023-01-12T10:25:41.268Z,9.37
2023-01-12T10:28:14.709Z,9.41
2023-01-12T10:30:44.762Z,9.35
2023-01-12T10:33:15.933Z,9.41
2023-01-12T10:35:58.628Z,9.51
2023-01-12T10:38:29.324Z,9.37
2023-01-12T10:41:13.045Z,9.48
2023-01-12T10:43:42.145Z,9.43
2023-01-12T10:46:14.116Z,9.44
2023-01-12T10:48:44.124Z,9.48
2023-01-12T10:51:27.425Z,9.51
2023-01-12T10:54:01.270Z,9.58
2023-01-12T10:56:35.179Z,9.20
2023-01-12T10:59:05.439Z,9.55
2023-01-12T11:01:50.749Z,9.58
2023-01-12T11:04:21.969Z,9.57
2023-01-12T11:07:05.133Z,9.52
2023-01-12T11:09:33.233Z,9.66
2023-01-12T11:12:03.431Z,9.71
2023-01-12T11:14:35.836Z,9.76
2023-01-12T11:17:29.269Z,9.84
2023-01-12T11:19:58.443Z,9.83
2023-01-12T11:22:28.616Z,9.88
2023-01-12T11:24:59.271Z,9.74
2023-01-12T11:27:32.763Z,9.75
2023-01-12T11:30:04.859Z,9.84
2023-01-12T11:32:40.841Z,9.72
2023-01-12T11:35:23.270Z,9.75
2023-01-12T11:37:54.899Z,9.77
2023-01-12T11:40:30.071Z,9.85
2023-01-12T11:43:24.243Z,9.92
2023-01-12T11:45:57.448Z,9.96
2023-01-12T11:48:38.430Z,9.97
2023-01-12T11:51:06.283Z,9.97
2023-01-12T11:53:34.422Z,10.01
2023-01-12T11:56:18.352Z,10.00
2023-01-12T11:58:56.118Z,9.93
2023-01-12T12:01:31.205Z,10.07
2023-01-12T12:04:22.484Z,10.07
2023-01-12T12:07:06.209Z,10.22
2023-01-12T12:10:01.087Z,10.23
2023-01-12T12:12:39.103Z,10.14
2023-01-12T12:15:19.188Z,10.20
2023-01-12T12:17:55.547Z,10.07
2023-01-12T12:20:33.579Z,10.13
2023-01-12T12:23:14.543Z,9.99
2023-01-12T12:25:53.715Z,10.16
2023-01-12T12:28:39.192Z,10.01
2023-01-12T12:31:48.716Z,10.04
2023-01-12T12:34:38.333Z,10.11
2023-01-12T12:37:17.930Z,10.20
2023-01-12T12:40:04.702Z,9.98
2023-01-12T12:43:06.297Z,9.89
2023-01-12T12:45:44.660Z,10.04
2023-01-12T12:48:16.558Z,10.00
2023-01-12T12:50:51.001Z,9.91
2023-01-12T12:53:26.179Z,9.92
2023-01-12T12:55:56.931Z,9.89
2023-01-12T12:58:39.727Z,9.83
2023-01-12T13:01:44.296Z,9.76
2023-01-12T13:04:14.832Z,9.66
2023-01-12T13:06:49.532Z,9.77
2023-01-12T13:09:43.257Z,9.60
2023-01-12T13:12:20.988Z,9.75
2023-01-12T13:15:18.810Z,9.63
2023-01-12T13:17:48.824Z,9.56
2023-01-12T13:20:50.937Z,9.60
2023-01-12T13:23:56.920Z,9.53
2023-01-12T13:26:44.623Z,9.57
2023-01-12T13:29:40.759Z,9.50
2023-01-12T13:32:36.392Z,9.54
2023-01-12T13:35:04.969Z,9.59
2023-01-12T13:37:45.538Z,9.53
2023-01-12T13:40:19.743Z,9.53
2023-01-12T13:43:08.885Z,9.63
2023-01-12T13:45:37.821Z,9.67
2023-01-12T13:48:08.018Z,9.68
2023-01-12T13:50:38.079Z,9.65
2023-01-12T13:53:05.983Z,9.59
2023-01-12T13:55:36.067Z,9.54
2023-01-12T13:58:07.796Z,9.57
2023-01-12T14:00:35.748Z,9.54
2023-01-12T14:03:05.989Z,9.52
2023-01-12T14:05:59.853Z,9.62
2023-01-12T14:08:54.781Z,9.61
2023-01-12T14:11:42.149Z,9.70
2023-01-12T14:14:48.023Z,9.72
2023-01-12T14:17:41.507Z,9.79
2023-01-12T14:20:15.697Z,9.71
2023-01-12T14:22:43.592Z,9.62
2023-01-12T14:25:16.447Z,9.64
2023-01-12T14:27:52.409Z,9.66
2023-01-12T14:30:22.415Z,9.72
2023-01-12T14:32:51.352Z,9.55
2023-01-12T14:35:21.921Z,9.60
2023-01-12T14:37:52.952Z,9.56
2023-01-12T14:40:23.783Z,9.65
2023-01-12T14:43:09.522Z,9.34
2023-01-12T14:46:13.128Z,9.70
2023-01-12T14:48:43.682Z,9.74
2023-01-12T14:51:19.207Z,9.72
2023-01-12T14:53:49.078Z,9.75
2023-01-12T14:56:19.544Z,9.70
2023-01-12T14:58:48.677Z,9.76
2023-01-12T15:01:33.730Z,9.61
2023-01-12T15:04:02.606Z,9.69
2023-01-12T15:06:30.498Z,9.79
2023-01-12T15:09:00.268Z,9.73
2023-01-12T15:11:36.296Z,9.80
2023-01-12T15:14:07.111Z,9.91
2023-01-12T15:16:54.337Z,10.03
2023-01-12T15:19:39.881Z,9.97
2023-01-12T15:22:28.688Z,9.97
2023-01-12T15:25:14.508Z,9.90
2023-01-12T15:27:42.267Z,9.95
2023-01-12T15:30:12.439Z,9.97
2023-01-12T15:32:48.207Z,9.79
2023-01-12T15:35:21.037Z,9.77
2023-01-12T15:37:48.781Z,9.70
2023-01-12T15:40:17.268Z,9.73
2023-01-12T15:42:44.945Z,9.83
2023-01-12T15:45:28.623Z,9.83
2023-01-12T15:47:57.778Z,10.06
2023-01-12T15:50:25.592Z,9.89
2023-01-12T15:52:53.663Z,10.07
2023-01-12T15:55:23.135Z,10.15
2023-01-12T15:57:52.157Z,10.08
2023-01-12T16:00:22.158Z,9.80
2023-01-12T16:02:51.253Z,10.05
2023-01-12T16:05:21.975Z,10.05
2023-01-12T16:07:50.252Z,10.21
2023-01-12T16:10:18.801Z,10.24
2023-01-12T16:12:47.761Z,10.11
2023-01-12T16:15:18.047Z,10.22
2023-01-12T16:17:45.883Z,10.24
2023-01-12T16:20:16.090Z,10.25
2023-01-12T16:22:46.556Z,10.17
2023-01-12T16:25:14.952Z,10.20
2023-01-12T16:27:42.797Z,10.20
2023-01-12T16:30:14.316Z,10.26
2023-01-12T16:32:47.139Z,10.23
2023-01-12T16:35:15.973Z,10.25
2023-01-12T16:37:45.065Z,10.28
2023-01-12T16:40:13.715Z,10.27
2023-01-12T16:42:41.413Z,10.18
2023-01-12T16:45:10.772Z,10.14
2023-01-12T16:47:38.643Z,10.13
2023-01-12T16:50:07.244Z,10.27
2023-01-12T16:52:35.226Z,10.22
2023-01-12T16:55:05.774Z,10.16
2023-01-12T16:57:34.594Z,9.96
2023-01-12T17:00:02.270Z,10.15
2023-01-12T17:02:31.424Z,10.07
2023-01-12T17:04:59.683Z,10.17
2023-01-12T17:07:27.749Z,9.97
2023-01-12T17:09:55.520Z,10.15
2023-01-12T17:12:24.647Z,10.01
2023-01-12T17:14:52.410Z,10.06
2023-01-12T17:17:20.278Z,10.07
2023-01-12T17:19:48.115Z,9.98
2023-01-12T17:22:16.166Z,10.02
2023-01-12T17:24:43.944Z,10.10
2023-01-12T17:27:12.012Z,10.08
2023-01-12T17:29:41.094Z,10.02
2023-01-12T17:32:09.137Z,10.07
2023-01-12T17:34:39.495Z,10.20
2023-01-12T17:37:08.663Z,10.02
2023-01-12T17:39:37.078Z,10.11
2023-01-12T17:42:22.666Z,10.00
2023-01-12T17:44:51.824Z,9.83
2023-01-12T17:47:19.522Z,9.84
2023-01-12T17:49:47.874Z,9.81
2023-01-12T17:52:15.676Z,9.83
2023-01-12T17:54:43.455Z,9.75
2023-01-12T17:57:11.295Z,9.65
2023-01-12T17:59:38.965Z,9.74
2023-01-12T18:02:08.420Z,9.74
2023-01-12T18:04:36.250Z,9.76
2023-01-12T18:07:04.091Z,9.67
2023-01-12T18:09:32.165Z,9.74
2023-01-12T18:12:00.292Z,9.76
2023-01-12T18:14:28.193Z,9.59
2023-01-12T18:16:57.321Z,9.71
2023-01-12T18:19:26.501Z,9.68
2023-01-12T18:21:54.215Z,9.72
2023-01-12T18:24:22.235Z,9.77
2023-01-12T18:26:50.841Z,9.70
2023-01-12T18:29:18.524Z,9.76
2023-01-12T18:31:47.228Z,9.66
2023-01-12T18:34:16.388Z,9.75
2023-01-12T18:36:46.322Z,9.61
2023-01-12T18:39:17.589Z,9.66
2023-01-12T18:42:03.122Z,9.66
2023-01-12T18:44:32.143Z,9.61
2023-01-12T18:47:17.701Z,9.56
2023-01-12T18:49:46.604Z,9.64
2023-01-12T18:52:34.785Z,9.60
2023-01-12T18:55:02.473Z,9.68
2023-01-12T18:57:32.315Z,9.54
2023-01-12T19:00:11.827Z,9.54
2023-01-12T19:02:39.901Z,9.63
2023-01-12T19:05:20.490Z,9.66
2023-01-12T19:08:05.059Z,9.69
2023-01-12T19:10:34.027Z,9.50
2023-01-12T19:13:19.523Z,9.52
2023-01-12T19:16:05.322Z,9.43
2023-01-12T19:18:35.551Z,9.46
2023-01-12T19:21:17.149Z,9.40
2023-01-12T19:24:05.794Z,9.39
2023-01-12T19:26:51.210Z,9.35
2023-01-12T19:29:18.900Z,9.57
2023-01-12T19:31:46.536Z,9.49
2023-01-12T19:34:14.280Z,9.44
2023-01-12T19:36:42.026Z,9.52
2023-01-12T19:39:11.492Z,9.55
2023-01-12T19:41:57.234Z,9.49
2023-01-12T19:44:24.897Z,9.58
2023-01-12T19:46:52.573Z,9.64
2023-01-12T19:49:20.251Z,9.60
2023-01-12T19:51:48.645Z,9.47
2023-01-12T19:54:17.682Z,9.44
2023-01-12T19:56:47.432Z,9.46
2023-01-12T19:59:15.163Z,9.52
2023-01-12T20:01:42.959Z,9.65
2023-01-12T20:04:10.645Z,9.67
2023-01-12T20:06:38.327Z,9.52
2023-01-12T20:09:06.011Z,9.58
2023-01-12T20:11:35.045Z,9.74
2023-01-12T20:14:02.733Z,9.76
2023-01-12T20:16:30.632Z,9.63
2023-01-12T20:18:59.446Z,9.74
2023-01-12T20:21:27.102Z,9.69
2023-01-12T20:23:54.896Z,9.79
2023-01-12T20:26:22.527Z,9.76
2023-01-12T20:28:51.547Z,9.20
2023-01-12T20:31:20.317Z,9.82
2023-01-12T20:33:48.707Z,9.88
2023-01-12T20:36:17.922Z,9.86
2023-01-12T20:38:46.912Z,9.91
2023-01-12T20:41:14.561Z,9.87
2023-01-12T20:43:42.288Z,9.74
2023-01-12T20:46:13.354Z,9.77
2023-01-12T20:48:41.792Z,9.77
2023-01-12T20:51:10.397Z,9.73
2023-01-12T20:53:38.141Z,9.80
2023-01-12T20:56:06.758Z,9.73
2023-01-12T20:58:34.902Z,9.83
2023-01-12T21:01:02.701Z,9.84
2023-01-12T21:03:31.904Z,9.76
2023-01-12T21:06:00.933Z,9.64
2023-01-12T21:08:28.575Z,9.77
2023-01-12T21:10:56.269Z,9.79
2023-01-12T21:13:23.953Z,9.82
2023-01-12T21:15:57.969Z,9.85
2023-01-12T21:18:25.656Z,9.74
2023-01-12T21:20:54.657Z,9.70
2023-01-12T21:23:22.383Z,9.74
2023-01-12T21:25:50.556Z,9.83
2023-01-12T21:28:18.660Z,9.58
2023-01-12T21:30:46.665Z,9.76
2023-01-12T21:33:14.697Z,9.81
2023-01-12T21:35:42.382Z,9.81
2023-01-12T21:38:11.425Z,9.81
2023-01-12T21:40:39.110Z,9.73
2023-01-12T21:43:08.845Z,9.78
2023-01-12T21:45:37.095Z,9.79
2023-01-12T21:48:05.012Z,9.81
2023-01-12T21:50:33.598Z,9.86
2023-01-12T21:53:02.612Z,9.71
2023-01-12T21:55:32.704Z,9.71
2023-01-12T21:58:02.110Z,9.72
2023-01-12T22:00:30.499Z,9.73
2023-01-12T22:02:58.431Z,9.60
2023-01-12T22:05:27.112Z,9.64
2023-01-12T22:07:55.535Z,9.76
2023-01-12T22:10:30.071Z,9.83
2023-01-12T22:13:00.818Z,9.67
2023-01-12T22:15:30.245Z,9.83
2023-01-12T22:17:57.914Z,9.81
2023-01-12T22:20:27.692Z,9.44
2023-01-12T22:22:55.822Z,9.83
2023-01-12T22:25:24.058Z,9.91
2023-01-12T22:27:51.761Z,9.77
2023-01-12T22:30:24.016Z,9.72
2023-01-12T22:32:55.011Z,9.74
2023-01-12T22:35:22.808Z,9.84
2023-01-12T22:37:50.503Z,9.88
2023-01-12T22:40:18.656Z,9.85
2023-01-12T22:43:04.051Z,9.91
2023-01-12T22:45:35.477Z,9.90
2023-01-12T22:48:03.185Z,9.92
2023-01-12T22:50:30.913Z,10.02
2023-01-12T22:52:58.545Z,9.98
2023-01-12T22:55:26.536Z,9.95
2023-01-12T22:57:54.249Z,10.06
2023-01-12T23:00:22.318Z,10.05
2023-01-12T23:03:00.757Z,10.11
2023-01-12T23:05:31.796Z,10.12
2023-01-12T23:07:59.987Z,10.15
2023-01-12T23:10:27.799Z,10.10
2023-01-12T23:13:15.528Z,10.06
2023-01-12T23:15:47.724Z,9.53
2023-01-12T23:18:19.226Z,10.20
2023-01-12T23:20:47.567Z,10.23
2023-01-12T23:23:17.576Z,10.18
2023-01-12T23:25:46.529Z,10.05
2023-01-12T23:28:15.764Z,10.29
2023-01-12T23:30:43.832Z,10.35
2023-01-12T23:33:12.653Z,10.26
2023-01-12T23:35:42.800Z,10.27
2023-01-12T23:38:15.887Z,10.21
2023-01-12T23:40:43.497Z,10.28
2023-01-12T23:43:11.107Z,10.31
2023-01-12T23:45:38.754Z,10.28
2023-01-12T23:48:07.729Z,10.33
2023-01-12T23:50:35.439Z,10.36
2023-01-12T23:53:04.894Z,10.36
2023-01-12T23:55:32.506Z,10.41
2023-01-12T23:58:00.115Z,10.48
